^^
Saratoga-Weather Station Historical Data
Daily Summary for May 17, 2022 Units:  English    Metric   Both
Daily Weekly Monthly Yearly Custom
  High: Low: Average:
Temperature: 81.7 °F 54.1 °F 67.3 °F
Dew Point: 62.2 °F 52.7 °F 56.8 °F
Humidity: 96% 42% 72%
Wind Speed: 8.1mph 0mph 0.7mph
Wind Gust: 12mph - -
Wind- - ESE
Pressure: 30.2 in 30 in -
Precipitation: 0 in    
Historical Graphs
 
 
Tabular Data for May 17, 2022
Time Temperature Dew Point Pressure Wind Wind Speed Wind Gust Humidity Rainfall Rate (Hourly) solar
00:02 59.4 °F 56.5 °F 30.1 in Calm     90% 0 in 0 W/m2
00:07 59.2 °F 56.3 °F 30.1 in Calm     90% 0 in 0 W/m2
00:12 59 °F 56.1 °F 30.1 in Calm     90% 0 in 0 W/m2
00:17 58.8 °F 55.9 °F 30.1 in Calm     90% 0 in 0 W/m2
00:22 58.8 °F 55.9 °F 30.1 in Calm     90% 0 in 0 W/m2
00:27 58.6 °F 55.9 °F 30.1 in Calm     91% 0 in 0 W/m2
00:32 58.6 °F 55.9 °F 30.1 in West 0.9 mph 1 mph 91% 0 in 0 W/m2
00:37 58.6 °F 55.9 °F 30.1 in Calm     91% 0 in 0 W/m2
00:42 58.5 °F 55.8 °F 30.1 in Calm     91% 0 in 0 W/m2
00:47 58.5 °F 55.8 °F 30.1 in Calm     91% 0 in 0 W/m2
00:52 58.5 °F 55.8 °F 30.1 in Calm     91% 0 in 0 W/m2
00:57 58.3 °F 55.6 °F 30.1 in West 0.9 mph 2 mph 91% 0 in 0 W/m2
01:02 58.1 °F 55.8 °F 30.1 in Calm   1 mph 92% 0 in 0 W/m2
01:07 57.9 °F 55.2 °F 30.1 in Calm   1 mph 91% 0 in 0 W/m2
01:12 57.7 °F 55.2 °F 30.1 in Calm     91% 0 in 0 W/m2
01:17 57.6 °F 55.2 °F 30.1 in Calm     92% 0 in 0 W/m2
01:22 57.4 °F 54.9 °F 30.1 in Calm     91% 0 in 0 W/m2
01:27 57.4 °F 55 °F 30.1 in Calm     92% 0 in 0 W/m2
01:32 57.2 °F 54.9 °F 30.1 in Calm     92% 0 in 0 W/m2
01:37 57 °F 54.7 °F 30.1 in Calm     92% 0 in 0 W/m2
01:42 57 °F 54.7 °F 30.1 in Calm     92% 0 in 0 W/m2
01:47 56.8 °F 54.5 °F 30.1 in Calm     92% 0 in 0 W/m2
01:52 56.7 °F 54.3 °F 30.1 in Calm     92% 0 in 0 W/m2
01:57 56.7 °F 54.3 °F 30.1 in Calm     92% 0 in 0 W/m2
02:02 56.7 °F 54.7 °F 30.1 in Calm     93% 0 in 0 W/m2
02:07 56.8 °F 55.2 °F 30.1 in Calm     94% 0 in 0 W/m2
02:12 56.8 °F 55.2 °F 30.1 in Calm     94% 0 in 0 W/m2
02:17 56.8 °F 54.9 °F 30.1 in Calm     93% 0 in 0 W/m2
02:22 56.7 °F 54.7 °F 30.1 in Calm     93% 0 in 0 W/m2
02:27 56.7 °F 54.7 °F 30.1 in Calm     93% 0 in 0 W/m2
02:32 56.5 °F 54.5 °F 30.1 in Calm     93% 0 in 0 W/m2
02:37 56.5 °F 54.5 °F 30.1 in Calm     93% 0 in 0 W/m2
02:42 56.3 °F 54.3 °F 30.1 in Calm     93% 0 in 0 W/m2
02:47 56.1 °F 54.5 °F 30.1 in Calm     94% 0 in 0 W/m2
02:57 56.1 °F 54.5 °F 30.1 in Calm     94% 0 in 0 W/m2
03:02 56.1 °F 54.5 °F 30.1 in Calm     94% 0 in 0 W/m2
03:07 55.9 °F 54.3 °F 30.1 in Calm     94% 0 in 0 W/m2
03:12 55.8 °F 53.8 °F 30.1 in Calm     93% 0 in 0 W/m2
03:17 55.8 °F 54.1 °F 30.1 in West 2 mph 2 mph 94% 0 in 0 W/m2
03:22 55.8 °F 54.1 °F 30.1 in Calm     94% 0 in 0 W/m2
03:27 55.8 °F 54.1 °F 30.1 in Calm     94% 0 in 0 W/m2
03:32 55.6 °F 54 °F 30.1 in Calm     94% 0 in 0 W/m2
03:37 55.6 °F 54 °F 30.1 in Calm   1 mph 94% 0 in 0 W/m2
03:42 55.4 °F 53.8 °F 30.1 in Calm     94% 0 in 0 W/m2
03:47 55.2 °F 53.6 °F 30.1 in Calm     94% 0 in 0 W/m2
03:52 55.2 °F 53.6 °F 30.1 in Calm     94% 0 in 0 W/m2
03:57 55.2 °F 53.6 °F 30.1 in Calm     94% 0 in 0 W/m2
04:02 55.2 °F 53.6 °F 30.1 in Calm     94% 0 in 0 W/m2
04:07 55 °F 53.4 °F 30.1 in Calm     94% 0 in 0 W/m2
04:12 55 °F 53.4 °F 30.1 in Calm     94% 0 in 0 W/m2
04:18 54.9 °F 53.2 °F 30.1 in Calm     94% 0 in 0 W/m2
04:23 55 °F 53.6 °F 30.1 in Calm     95% 0 in 0 W/m2
04:28 55 °F 53.6 °F 30.1 in Calm     95% 0 in 0 W/m2
04:33 55 °F 53.6 °F 30.1 in Calm     95% 0 in 0 W/m2
04:38 55 °F 53.6 °F 30.1 in Calm     95% 0 in 0 W/m2
04:43 55 °F 53.6 °F 30.1 in Calm     95% 0 in 0 W/m2
04:48 54.9 °F 53.4 °F 30.1 in Calm     95% 0 in 0 W/m2
04:53 54.9 °F 53.4 °F 30.1 in Calm     95% 0 in 0 W/m2
04:58 54.7 °F 53.2 °F 30.1 in Calm     95% 0 in 0 W/m2
05:03 54.7 °F 53.2 °F 30.1 in Calm     95% 0 in 0 W/m2
05:08 54.7 °F 53.2 °F 30.1 in Calm     95% 0 in 0 W/m2
05:13 54.7 °F 53.2 °F 30.1 in Calm     95% 0 in 0 W/m2
05:18 54.5 °F 53.1 °F 30.1 in Calm     95% 0 in 0 W/m2
05:23 54.3 °F 52.9 °F 30.1 in Calm     95% 0 in 0 W/m2
05:28 54.3 °F 52.9 °F 30.1 in Calm     95% 0 in 0 W/m2
05:33 54.3 °F 52.9 °F 30.1 in Calm     95% 0 in 0 W/m2
05:38 54.1 °F 52.7 °F 30.1 in Calm     95% 0 in 0 W/m2
05:43 54.3 °F 52.9 °F 30.1 in Calm     95% 0 in 0 W/m2
05:48 54.3 °F 52.9 °F 30.1 in Calm     95% 0 in 0 W/m2
05:53 54.3 °F 52.9 °F 30.1 in Calm     95% 0 in 5 W/m2
05:58 54.3 °F 52.9 °F 30.1 in Calm     95% 0 in 7 W/m2
06:03 54.1 °F 52.7 °F 30.1 in Calm     95% 0 in 11 W/m2
06:08 54.1 °F 52.7 °F 30.1 in Calm     95% 0 in 14 W/m2
06:13 54.1 °F 52.7 °F 30.1 in Calm     95% 0 in 18 W/m2
06:18 54.1 °F 52.7 °F 30.1 in Calm     95% 0 in 19 W/m2
06:23 54.3 °F 53.2 °F 30.1 in Calm     96% 0 in 21 W/m2
06:28 54.5 °F 53.4 °F 30.1 in Calm     96% 0 in 23 W/m2
06:33 54.9 °F 53.8 °F 30.1 in North 0.9 mph 2 mph 96% 0 in 25 W/m2
06:38 54.9 °F 53.8 °F 30.1 in NE 0.9 mph 2 mph 96% 0 in 28 W/m2
06:43 54.7 °F 53.6 °F 30.1 in Calm     96% 0 in 30 W/m2
06:48 54.7 °F 53.6 °F 30.1 in Calm     96% 0 in 33 W/m2
06:53 54.7 °F 53.6 °F 30.1 in Calm     96% 0 in 35 W/m2
06:58 54.7 °F 53.6 °F 30.1 in Calm     96% 0 in 35 W/m2
07:03 54.9 °F 53.8 °F 30.1 in Calm     96% 0 in 35 W/m2
07:08 54.9 °F 53.8 °F 30.1 in Calm     96% 0 in 39 W/m2
07:13 55 °F 54 °F 30.1 in Calm     96% 0 in 46 W/m2
07:18 55 °F 54 °F 30.1 in Calm     96% 0 in 56 W/m2
07:23 55.2 °F 54.1 °F 30.1 in Calm     96% 0 in 58 W/m2
07:28 55.2 °F 54.1 °F 30.1 in Calm     96% 0 in 54 W/m2
07:33 55.4 °F 54.3 °F 30.1 in Calm     96% 0 in 58 W/m2
07:38 55.6 °F 54.5 °F 30.1 in Calm     96% 0 in 63 W/m2
07:43 55.8 °F 54.7 °F 30.1 in Calm     96% 0 in 79 W/m2
07:48 55.8 °F 54.7 °F 30.1 in Calm     96% 0 in 97 W/m2
07:53 55.9 °F 54.9 °F 30.1 in Calm     96% 0 in 105 W/m2
07:58 56.1 °F 55 °F 30.1 in Calm     96% 0 in 113 W/m2
08:03 56.3 °F 55.2 °F 30.1 in Calm     96% 0 in 120 W/m2
08:08 56.5 °F 55 °F 30.1 in Calm     95% 0 in 120 W/m2
08:13 56.7 °F 55.6 °F 30.1 in Calm     96% 0 in 118 W/m2
08:18 56.8 °F 55.4 °F 30.1 in Calm     95% 0 in 125 W/m2
08:23 56.8 °F 55.4 °F 30.1 in Calm     95% 0 in 135 W/m2
08:28 57.2 °F 55.8 °F 30.1 in NE 0.9 mph 2 mph 95% 0 in 148 W/m2
08:33 57.4 °F 55.6 °F 30.1 in Calm   2 mph 94% 0 in 155 W/m2
08:38 57.7 °F 55.9 °F 30.1 in Calm     94% 0 in 165 W/m2
08:43 58.1 °F 56.3 °F 30.1 in Calm   2 mph 94% 0 in 174 W/m2
08:48 58.5 °F 56.5 °F 30.1 in NE 0.9 mph 2 mph 93% 0 in 185 W/m2
08:53 59 °F 57 °F 30.1 in Calm   2 mph 93% 0 in 199 W/m2
08:58 59.4 °F 57 °F 30.1 in Calm   2 mph 92% 0 in 209 W/m2
09:03 59.7 °F 57 °F 30.1 in Calm     91% 0 in 213 W/m2
09:08 60.3 °F 57.6 °F 30.1 in Calm   1 mph 91% 0 in 211 W/m2
09:13 60.6 °F 57.7 °F 30.1 in North 0.9 mph 1 mph 90% 0 in 211 W/m2
09:18 61.3 °F 58.5 °F 30.1 in ESE 2 mph 2 mph 90% 0 in 197 W/m2
09:23 61.9 °F 58.3 °F 30.1 in East 2 mph 3 mph 88% 0 in 190 W/m2
09:28 62.2 °F 58.3 °F 30.1 in Calm   3 mph 87% 0 in 195 W/m2
09:33 62.6 °F 58.6 °F 30.1 in Calm   1 mph 87% 0 in 202 W/m2
09:38 63.1 °F 59.2 °F 30.1 in Calm   1 mph 87% 0 in 199 W/m2
09:43 64 °F 59.4 °F 30.2 in East 2.9 mph 4 mph 85% 0 in 192 W/m2
09:48 64.8 °F 59.5 °F 30.2 in ENE 0.9 mph 1 mph 83% 0 in 190 W/m2
09:53 65.1 °F 59.9 °F 30.2 in ENE 2.9 mph 5 mph 83% 0 in 186 W/m2
09:58 65.5 °F 59.9 °F 30.1 in East 2 mph 4 mph 82% 0 in 241 W/m2
10:03 65.7 °F 60.1 °F 30.1 in East 0.9 mph 5 mph 82% 0 in 415 W/m2
10:08 66 °F 60.1 °F 30.1 in Calm   3 mph 81% 0 in 401 W/m2
10:13 66.6 °F 60.6 °F 30.1 in ENE 2.9 mph 3 mph 81% 0 in 424 W/m2
10:18 66.9 °F 60.3 °F 30.1 in East 0.9 mph 3 mph 79% 0 in 420 W/m2
10:23 67.3 °F 61 °F 30.1 in ENE 2 mph 4 mph 80% 0 in 503 W/m2
10:28 67.5 °F 60.8 °F 30.1 in SSE 0.9 mph 3 mph 79% 0 in 506 W/m2
10:33 67.6 °F 60.3 °F 30.1 in ENE 2.9 mph 5 mph 77% 0 in 584 W/m2
10:38 67.8 °F 60.3 °F 30.1 in East 0.9 mph 6 mph 77% 0 in 617 W/m2
10:43 68.4 °F 60.8 °F 30.1 in NE 0.9 mph 6 mph 77% 0 in 533 W/m2
10:48 68.5 °F 60.6 °F 30.1 in ESE 0.9 mph 3 mph 76% 0 in 598 W/m2
10:53 69.1 °F 61.2 °F 30.1 in SE 0.9 mph 6 mph 76% 0 in 585 W/m2
10:58 69.6 °F 61.3 °F 30.1 in East 2 mph 7 mph 75% 0 in 645 W/m2
11:03 70 °F 61.7 °F 30.1 in East 2 mph 3 mph 75% 0 in 661 W/m2
11:08 70.3 °F 61.7 °F 30.1 in NE 2.9 mph 5 mph 74% 0 in 686 W/m2
11:13 70.5 °F 61.5 °F 30.1 in SE 0.9 mph 5 mph 73% 0 in 698 W/m2
11:18 70.7 °F 61.2 °F 30.1 in East 2.9 mph 3 mph 72% 0 in 724 W/m2
11:23 70.9 °F 61.3 °F 30.1 in East 2 mph 4 mph 72% 0 in 737 W/m2
11:28 71.4 °F 61.9 °F 30.1 in ENE 4.9 mph 8 mph 72% 0 in 745 W/m2
11:33 71.8 °F 61.5 °F 30.1 in NE 2 mph 4 mph 70% 0 in 733 W/m2
11:38 71.8 °F 61.9 °F 30.1 in ENE 2 mph 2 mph 71% 0 in 758 W/m2
11:43 72.1 °F 61.9 °F 30.1 in Calm   5 mph 70% 0 in 737 W/m2
11:48 72.5 °F 62.2 °F 30.1 in ENE 2.9 mph 3 mph 70% 0 in 745 W/m2
11:53 72.7 °F 61.5 °F 30.1 in NE 0.9 mph 7 mph 68% 0 in 779 W/m2
11:58 73 °F 61.9 °F 30.1 in SE 4 mph 5 mph 68% 0 in 766 W/m2
12:03 73.2 °F 61.5 °F 30.1 in ENE 0.9 mph 4 mph 67% 0 in 742 W/m2
12:08 73.8 °F 61.3 °F 30.1 in ESE 0.9 mph 5 mph 65% 0 in 751 W/m2
12:13 73.9 °F 61.3 °F 30.1 in ENE 0.9 mph 6 mph 65% 0 in 793 W/m2
12:18 74.3 °F 61.3 °F 30.1 in ESE 2 mph 7 mph 64% 0 in 791 W/m2
12:23 74.5 °F 60.1 °F 30.1 in ESE 2.9 mph 6 mph 61% 0 in 802 W/m2
12:28 74.7 °F 59.9 °F 30.1 in ENE 0.9 mph 7 mph 60% 0 in 809 W/m2
12:33 74.7 °F 59.9 °F 30.1 in NW 2.9 mph 4 mph 60% 0 in 824 W/m2
12:38 74.7 °F 59.9 °F 30.1 in NE 2.9 mph 7 mph 60% 0 in 819 W/m2
12:43 74.8 °F 60.1 °F 30.1 in ESE 0.9 mph 4 mph 60% 0 in 817 W/m2
12:48 75 °F 56.1 °F 30.1 in East 2.9 mph 3 mph 52% 0 in 814 W/m2
12:53 75.6 °F 58.8 °F 30.1 in ENE 4 mph 7 mph 56% 0 in 830 W/m2
12:58 75.9 °F 59.2 °F 30.1 in NE 4 mph 4 mph 56% 0 in 842 W/m2
13:03 75.9 °F 60.1 °F 30.1 in ENE 0.9 mph 3 mph 58% 0 in 842 W/m2
13:08 76.6 °F 59.2 °F 30.1 in ESE 2.9 mph 3 mph 55% 0 in 828 W/m2
13:13 76.6 °F 58.3 °F 30.1 in ENE 2.9 mph 5 mph 53% 0 in 860 W/m2
13:18 76.5 °F 57.6 °F 30.1 in NNE 2 mph 6 mph 52% 0 in 861 W/m2
13:23 76.6 °F 59.2 °F 30.1 in Calm   2 mph 55% 0 in 853 W/m2
13:28 76.6 °F 59.2 °F 30.1 in East 0.9 mph 7 mph 55% 0 in 863 W/m2
13:33 76.6 °F 59.2 °F 30.1 in East 0.9 mph 5 mph 55% 0 in 860 W/m2
13:38 76.8 °F 57.4 °F 30.1 in ESE 8.1 mph 9 mph 51% 0 in 849 W/m2
13:43 77 °F 59.5 °F 30.1 in Calm   4 mph 55% 0 in 851 W/m2
13:48 77.2 °F 58.6 °F 30.1 in NNW 0.9 mph 9 mph 53% 0 in 854 W/m2
13:53 77.4 °F 58.3 °F 30.1 in West 2 mph 4 mph 52% 0 in 870 W/m2
13:58 77.7 °F 57.6 °F 30.1 in ENE 4 mph 5 mph 50% 0 in 898 W/m2
14:03 77.7 °F 58.6 °F 30.1 in East 2.9 mph 4 mph 52% 0 in 867 W/m2
14:08 77.9 °F 57.2 °F 30.1 in East 0.9 mph 3 mph 49% 0 in 851 W/m2
14:13 78.1 °F 55.6 °F 30.1 in WNW 0.9 mph 3 mph 46% 0 in 865 W/m2
14:18 78.4 °F 57.7 °F 30.1 in ESE 2.9 mph 9 mph 49% 0 in 889 W/m2
14:23 79 °F 57.6 °F 30.1 in East 2 mph 7 mph 48% 0 in 889 W/m2
14:28 79.2 °F 56.7 °F 30.1 in East 2 mph 9 mph 46% 0 in 896 W/m2
14:33 79 °F 55.2 °F 30.1 in SW 0.9 mph 4 mph 44% 0 in 886 W/m2
14:38 79 °F 55.8 °F 30.1 in NNW 4 mph 4 mph 45% 0 in 884 W/m2
14:43 78.6 °F 56.1 °F 30.1 in WSW 0.9 mph 4 mph 46% 0 in 879 W/m2
14:48 79 °F 58.1 °F 30.1 in East 0.9 mph 4 mph 49% 0 in 874 W/m2
14:53 79 °F 57.6 °F 30.1 in Calm   1 mph 48% 0 in 916 W/m2
14:58 79.3 °F 57.9 °F 30.1 in SSE 2.9 mph 4 mph 48% 0 in 933 W/m2
15:03 79.5 °F 57.6 °F 30.1 in ESE 2.9 mph 5 mph 47% 0 in 930 W/m2
15:08 79.9 °F 57.9 °F 30.1 in ESE 4 mph 4 mph 47% 0 in 459 W/m2
15:13 79.5 °F 57.6 °F 30.1 in East 2 mph 4 mph 47% 0 in 229 W/m2
15:18 79.2 °F 55.9 °F 30.1 in SE 0.9 mph 2 mph 45% 0 in 916 W/m2
15:23 79 °F 55.8 °F 30.1 in East 4 mph 4 mph 45% 0 in 299 W/m2
15:28 78.8 °F 56.3 °F 30.1 in Calm   3 mph 46% 0 in 206 W/m2
15:34 79 °F 56.5 °F 30.1 in WNW 0.9 mph 2 mph 46% 0 in 868 W/m2
15:39 79.3 °F 56.1 °F 30.1 in SW 2 mph 3 mph 45% 0 in 835 W/m2
15:44 79.9 °F 57.2 °F 30.1 in Calm   4 mph 46% 0 in 844 W/m2
15:49 80.4 °F 57.7 °F 30.1 in ESE 2 mph 4 mph 46% 0 in 872 W/m2
15:54 81 °F 57.6 °F 30.1 in NNW 2.9 mph 8 mph 45% 0 in 865 W/m2
15:59 81 °F 57 °F 30.1 in ESE 2 mph 12 mph 44% 0 in 842 W/m2
16:09 80.8 °F 56.8 °F 30.1 in SE 0.9 mph 12 mph 44% 0 in 149 W/m2
16:14 80.6 °F 56.1 °F 30.1 in South 0.9 mph 4 mph 43% 0 in 793 W/m2
16:19 81 °F 55.8 °F 30.1 in ESE 0.9 mph 3 mph 42% 0 in 789 W/m2
16:24 81 °F 57 °F 30.1 in SE 2 mph 3 mph 44% 0 in 763 W/m2
16:29 81.1 °F 56.5 °F 30.1 in SE 2 mph 6 mph 43% 0 in 174 W/m2
16:34 80.8 °F 56.8 °F 30.1 in East 0.9 mph 3 mph 44% 0 in 364 W/m2
16:39 80.6 °F 58.5 °F 30.1 in ENE 2 mph 2 mph 47% 0 in 726 W/m2
16:44 80.8 °F 56.8 °F 30.1 in NE 2.9 mph 6 mph 44% 0 in 715 W/m2
16:49 81 °F 56.3 °F 30.1 in Calm   4 mph 43% 0 in 707 W/m2
16:54 81 °F 58.3 °F 30.1 in Calm   2 mph 46% 0 in 673 W/m2
16:59 81 °F 56.3 °F 30.1 in ESE 2 mph 6 mph 43% 0 in 689 W/m2
17:04 80.6 °F 56.7 °F 30.1 in East 0.9 mph 1 mph 44% 0 in 125 W/m2
17:09 80.1 °F 56.8 °F 30.1 in SE 2.9 mph 6 mph 45% 0 in 190 W/m2
17:14 80.2 °F 57.6 °F 30.1 in SSE 2 mph 2 mph 46% 0 in 628 W/m2
17:19 80.4 °F 55.9 °F 30 in ESE 0.9 mph 4 mph 43% 0 in 230 W/m2
17:24 80.2 °F 57 °F 30 in Calm   1 mph 45% 0 in 612 W/m2
17:29 80.6 °F 55.4 °F 30 in South 2 mph 2 mph 42% 0 in 605 W/m2
17:34 81.1 °F 56.5 °F 30 in ENE 4 mph 4 mph 43% 0 in 543 W/m2
17:39 80.8 °F 57.4 °F 30.1 in East 2 mph 3 mph 45% 0 in 301 W/m2
17:44 80.6 °F 57.9 °F 30.1 in Calm   1 mph 46% 0 in 148 W/m2
17:49 80.4 °F 59 °F 30 in ENE 0.9 mph 2 mph 48% 0 in 137 W/m2
17:54 80.1 °F 58.1 °F 30 in ENE 0.9 mph 1 mph 47% 0 in 158 W/m2
17:59 79.7 °F 58.8 °F 30 in Calm   1 mph 49% 0 in 160 W/m2
18:04 79.3 °F 59 °F 30 in West 0.9 mph 3 mph 50% 0 in 171 W/m2
18:09 79.3 °F 57.4 °F 30 in WSW 0.9 mph 2 mph 47% 0 in 371 W/m2
18:14 79.7 °F 57.7 °F 30 in Calm   3 mph 47% 0 in 524 W/m2
18:19 80.4 °F 59 °F 30 in Calm   2 mph 48% 0 in 499 W/m2
18:24 80.8 °F 56.8 °F 30 in ESE 0.9 mph 4 mph 44% 0 in 308 W/m2
18:29 80.8 °F 56.8 °F 30 in ESE 0.9 mph 3 mph 44% 0 in 327 W/m2
18:34 80.4 °F 57.2 °F 30 in SE 0.9 mph 4 mph 45% 0 in 125 W/m2
18:39 80.4 °F 57.7 °F 30 in SE 0.9 mph 1 mph 46% 0 in 216 W/m2
18:44 80.4 °F 59 °F 30 in SE 0.9 mph 1 mph 48% 0 in 137 W/m2
18:49 81 °F 57.6 °F 30 in Calm   3 mph 45% 0 in 118 W/m2
18:54 81.1 °F 57.2 °F 30 in ESE 2.9 mph 3 mph 44% 0 in 118 W/m2
18:59 81.3 °F 57.9 °F 30 in Calm   1 mph 45% 0 in 113 W/m2
19:04 81.5 °F 58.1 °F 30 in Calm     45% 0 in 98 W/m2
19:09 81.7 °F 58.8 °F 30 in East 2 mph 3 mph 46% 0 in 105 W/m2
19:14 81.1 °F 57.7 °F 30 in East 0.9 mph 3 mph 45% 0 in 95 W/m2
19:19 81.1 °F 57.7 °F 30 in Calm   2 mph 45% 0 in 88 W/m2
19:24 81.1 °F 58.5 °F 30 in East 0.9 mph 2 mph 46% 0 in 86 W/m2
19:29 81.1 °F 57.7 °F 30 in Calm   1 mph 45% 0 in 72 W/m2
19:34 81.1 °F 57.7 °F 30 in Calm   2 mph 45% 0 in 72 W/m2
19:39 81.1 °F 60.1 °F 30 in Calm     49% 0 in 62 W/m2
19:44 81 °F 60.6 °F 30 in SE 0.9 mph 1 mph 50% 0 in 54 W/m2
19:49 80.8 °F 61.5 °F 30 in Calm   1 mph 52% 0 in 49 W/m2
19:54 80.4 °F 61.2 °F 30 in SE 0.9 mph 1 mph 52% 0 in 46 W/m2
19:59 79.9 °F 60.6 °F 30 in SE 0.9 mph 1 mph 52% 0 in 46 W/m2
20:04 79.3 °F 60.8 °F 30 in SE 2 mph 2 mph 53% 0 in 44 W/m2
20:09 79 °F 60.4 °F 30 in SE 0.9 mph 2 mph 53% 0 in 37 W/m2
20:14 78.4 °F 60.4 °F 30.1 in SE 0.9 mph 2 mph 54% 0 in 35 W/m2
20:19 77.7 °F 60.3 °F 30.1 in Calm   2 mph 55% 0 in 32 W/m2
20:24 77.2 °F 60.3 °F 30.1 in Calm   2 mph 56% 0 in 28 W/m2
20:29 76.6 °F 59.7 °F 30.1 in Calm   1 mph 56% 0 in 26 W/m2
20:34 75.9 °F 59.5 °F 30 in SE 0.9 mph 2 mph 57% 0 in 23 W/m2
20:39 75.6 °F 59.2 °F 30 in SE 0.9 mph 1 mph 57% 0 in 21 W/m2
20:44 75 °F 59.2 °F 30 in SE 0.9 mph 1 mph 58% 0 in 18 W/m2
20:49 74.7 °F 58.8 °F 30 in SE 0.9 mph 2 mph 58% 0 in 16 W/m2
20:54 74.1 °F 58.8 °F 30 in Calm   1 mph 59% 0 in 12 W/m2
20:59 73.8 °F 59 °F 30 in SE 0.9 mph 2 mph 60% 0 in 9 W/m2
21:04 73 °F 58.3 °F 30 in Calm   1 mph 60% 0 in 7 W/m2
21:09 72.3 °F 58.1 °F 30.1 in SE 0.9 mph 1 mph 61% 0 in 5 W/m2
21:14 71.6 °F 57.9 °F 30.1 in SE 0.9 mph 2 mph 62% 0 in 0 W/m2
21:20 71.1 °F 57.7 °F 30.1 in SE 0.9 mph 2 mph 63% 0 in 0 W/m2
21:25 70.5 °F 57.7 °F 30.1 in SE 0.9 mph 1 mph 64% 0 in 0 W/m2
21:30 70.2 °F 57.4 °F 30.1 in Calm     64% 0 in 0 W/m2
21:35 69.8 °F 57.6 °F 30.1 in SE 0.9 mph 1 mph 65% 0 in 0 W/m2
21:40 69.4 °F 57.2 °F 30.1 in Calm     65% 0 in 0 W/m2
21:45 69.1 °F 57.2 °F 30.1 in Calm   1 mph 66% 0 in 0 W/m2
21:50 68.7 °F 57.4 °F 30.1 in Calm     67% 0 in 0 W/m2
21:55 68.4 °F 57 °F 30.1 in Calm   2 mph 67% 0 in 0 W/m2
22:00 67.8 °F 56.8 °F 30.1 in Calm   2 mph 68% 0 in 0 W/m2
22:05 67.6 °F 56.7 °F 30.1 in Calm     68% 0 in 0 W/m2
22:10 67.3 °F 56.8 °F 30.1 in Calm   2 mph 69% 0 in 0 W/m2
22:15 66.9 °F 56.5 °F 30.1 in Calm     69% 0 in 0 W/m2
22:20 66.7 °F 56.7 °F 30.1 in Calm     70% 0 in 0 W/m2
22:25 66.6 °F 56.8 °F 30.1 in Calm     71% 0 in 0 W/m2
22:30 66.2 °F 56.5 °F 30.1 in Calm     71% 0 in 0 W/m2
22:35 66 °F 56.3 °F 30.1 in Calm     71% 0 in 0 W/m2
22:40 65.7 °F 56.3 °F 30.1 in Calm     72% 0 in 0 W/m2
22:45 65.5 °F 56.3 °F 30.1 in Calm     72% 0 in 0 W/m2
22:50 65.5 °F 56.3 °F 30.1 in Calm   1 mph 72% 0 in 0 W/m2
22:55 65.3 °F 56.5 °F 30.1 in Calm     73% 0 in 0 W/m2
23:00 65.1 °F 56.3 °F 30.1 in Calm     73% 0 in 0 W/m2
23:05 64.9 °F 56.1 °F 30.1 in Calm     73% 0 in 0 W/m2
23:10 64.8 °F 55.9 °F 30.1 in Calm     73% 0 in 0 W/m2
23:15 64.6 °F 55.8 °F 30.1 in Calm     73% 0 in 0 W/m2
23:20 64.4 °F 55.9 °F 30.1 in Calm     74% 0 in 0 W/m2
23:25 64.2 °F 55.8 °F 30.1 in Calm     74% 0 in 0 W/m2
23:30 64 °F 55.6 °F 30.1 in Calm     74% 0 in 0 W/m2
23:35 63.9 °F 55.8 °F 30.1 in Calm     75% 0 in 0 W/m2
23:40 63.7 °F 55.9 °F 30.1 in Calm   1 mph 76% 0 in 0 W/m2
23:45 63.7 °F 55.9 °F 30.1 in Calm   1 mph 76% 0 in 0 W/m2
23:50 63.3 °F 55.6 °F 30.1 in Calm     76% 0 in 0 W/m2
23:55 63.1 °F 55.4 °F 30.1 in Calm   1 mph 76% 0 in 0 W/m2
Juneau County Weather
Compliments of Weather Underground - 4 mb